sensor_id;sensor_type;location;lat;lon;timestamp;P1;durP1;ratioP1;P2;durP2;ratioP2
72335;SDS011;65062;48.446;8.834;2023-04-06T00:02:02;11.32;;;5.43;;
72335;SDS011;65062;48.446;8.834;2023-04-06T00:05:03;12.55;;;5.82;;
72335;SDS011;65062;48.446;8.834;2023-04-06T00:08:04;9.55;;;5.85;;
72335;SDS011;65062;48.446;8.834;2023-04-06T00:11:04;10.05;;;5.65;;
72335;SDS011;65062;48.446;8.834;2023-04-06T00:14:05;9.77;;;5.95;;
72335;SDS011;65062;48.446;8.834;2023-04-06T00:17:05;10.43;;;5.55;;
72335;SDS011;65062;48.446;8.834;2023-04-06T00:20:06;11.90;;;5.32;;
72335;SDS011;65062;48.446;8.834;2023-04-06T00:23:07;9.35;;;5.40;;
72335;SDS011;65062;48.446;8.834;2023-04-06T00:26:08;12.02;;;6.07;;
72335;SDS011;65062;48.446;8.834;2023-04-06T00:29:10;9.93;;;5.53;;
72335;SDS011;65062;48.446;8.834;2023-04-06T00:32:10;10.85;;;5.85;;
72335;SDS011;65062;48.446;8.834;2023-04-06T00:35:11;8.82;;;5.45;;
72335;SDS011;65062;48.446;8.834;2023-04-06T00:38:11;11.10;;;5.93;;
72335;SDS011;65062;48.446;8.834;2023-04-06T00:41:12;9.45;;;5.68;;
72335;SDS011;65062;48.446;8.834;2023-04-06T00:44:13;9.57;;;5.38;;
72335;SDS011;65062;48.446;8.834;2023-04-06T00:47:13;9.43;;;5.82;;
72335;SDS011;65062;48.446;8.834;2023-04-06T00:50:14;11.57;;;6.07;;
72335;SDS011;65062;48.446;8.834;2023-04-06T00:53:15;10.88;;;5.38;;
72335;SDS011;65062;48.446;8.834;2023-04-06T00:56:15;9.63;;;5.63;;
72335;SDS011;65062;48.446;8.834;2023-04-06T00:59:15;8.23;;;5.30;;
72335;SDS011;65062;48.446;8.834;2023-04-06T01:02:16;10.38;;;5.93;;
72335;SDS011;65062;48.446;8.834;2023-04-06T01:05:16;9.57;;;5.78;;
72335;SDS011;65062;48.446;8.834;2023-04-06T01:08:17;8.85;;;4.93;;
72335;SDS011;65062;48.446;8.834;2023-04-06T01:11:17;9.50;;;5.68;;
72335;SDS011;65062;48.446;8.834;2023-04-06T01:14:17;10.48;;;6.00;;
72335;SDS011;65062;48.446;8.834;2023-04-06T01:17:18;9.68;;;5.63;;
72335;SDS011;65062;48.446;8.834;2023-04-06T01:20:18;13.73;;;6.78;;
72335;SDS011;65062;48.446;8.834;2023-04-06T01:23:19;11.57;;;6.53;;
72335;SDS011;65062;48.446;8.834;2023-04-06T01:26:19;11.30;;;5.82;;
72335;SDS011;65062;48.446;8.834;2023-04-06T01:29:20;11.25;;;5.85;;
72335;SDS011;65062;48.446;8.834;2023-04-06T01:32:20;10.10;;;5.45;;
72335;SDS011;65062;48.446;8.834;2023-04-06T01:35:21;9.48;;;5.70;;
72335;SDS011;65062;48.446;8.834;2023-04-06T01:38:21;9.48;;;5.90;;
72335;SDS011;65062;48.446;8.834;2023-04-06T01:41:22;9.90;;;5.95;;
72335;SDS011;65062;48.446;8.834;2023-04-06T01:44:22;12.10;;;6.93;;
72335;SDS011;65062;48.446;8.834;2023-04-06T01:47:23;10.48;;;5.57;;
72335;SDS011;65062;48.446;8.834;2023-04-06T01:50:23;10.15;;;6.13;;
72335;SDS011;65062;48.446;8.834;2023-04-06T01:53:23;9.60;;;5.28;;
72335;SDS011;65062;48.446;8.834;2023-04-06T01:56:24;10.73;;;6.25;;
72335;SDS011;65062;48.446;8.834;2023-04-06T01:59:24;9.27;;;5.80;;
72335;SDS011;65062;48.446;8.834;2023-04-06T02:02:25;11.40;;;6.03;;
72335;SDS011;65062;48.446;8.834;2023-04-06T02:05:25;10.23;;;5.72;;
72335;SDS011;65062;48.446;8.834;2023-04-06T02:08:26;9.27;;;5.43;;
72335;SDS011;65062;48.446;8.834;2023-04-06T02:11:26;9.60;;;5.80;;
72335;SDS011;65062;48.446;8.834;2023-04-06T02:14:27;10.27;;;5.68;;
72335;SDS011;65062;48.446;8.834;2023-04-06T02:17:27;9.27;;;5.80;;
72335;SDS011;65062;48.446;8.834;2023-04-06T02:20:28;12.25;;;6.03;;
72335;SDS011;65062;48.446;8.834;2023-04-06T02:23:28;11.73;;;6.45;;
72335;SDS011;65062;48.446;8.834;2023-04-06T02:26:29;10.15;;;6.03;;
72335;SDS011;65062;48.446;8.834;2023-04-06T02:29:29;10.13;;;5.82;;
72335;SDS011;65062;48.446;8.834;2023-04-06T02:32:29;11.32;;;6.30;;
72335;SDS011;65062;48.446;8.834;2023-04-06T02:35:30;11.85;;;5.63;;
72335;SDS011;65062;48.446;8.834;2023-04-06T02:38:31;9.27;;;5.90;;
72335;SDS011;65062;48.446;8.834;2023-04-06T02:41:31;10.00;;;6.40;;
72335;SDS011;65062;48.446;8.834;2023-04-06T02:44:32;12.10;;;6.05;;
72335;SDS011;65062;48.446;8.834;2023-04-06T02:47:32;9.77;;;5.50;;
72335;SDS011;65062;48.446;8.834;2023-04-06T02:50:33;10.93;;;6.15;;
72335;SDS011;65062;48.446;8.834;2023-04-06T02:53:33;10.80;;;6.38;;
72335;SDS011;65062;48.446;8.834;2023-04-06T02:56:34;11.38;;;6.00;;
72335;SDS011;65062;48.446;8.834;2023-04-06T02:59:34;11.10;;;6.05;;
72335;SDS011;65062;48.446;8.834;2023-04-06T03:02:35;11.77;;;5.30;;
72335;SDS011;65062;48.446;8.834;2023-04-06T03:05:35;11.93;;;6.00;;
72335;SDS011;65062;48.446;8.834;2023-04-06T03:08:36;9.43;;;5.85;;
72335;SDS011;65062;48.446;8.834;2023-04-06T03:11:36;10.10;;;6.03;;
72335;SDS011;65062;48.446;8.834;2023-04-06T03:14:36;11.43;;;5.85;;
72335;SDS011;65062;48.446;8.834;2023-04-06T03:17:37;8.60;;;5.45;;
72335;SDS011;65062;48.446;8.834;2023-04-06T03:20:37;10.88;;;6.18;;
72335;SDS011;65062;48.446;8.834;2023-04-06T03:23:38;15.43;;;6.45;;
72335;SDS011;65062;48.446;8.834;2023-04-06T03:26:38;10.40;;;5.95;;
72335;SDS011;65062;48.446;8.834;2023-04-06T03:29:38;12.65;;;6.43;;
72335;SDS011;65062;48.446;8.834;2023-04-06T03:32:39;13.02;;;5.43;;
72335;SDS011;65062;48.446;8.834;2023-04-06T03:35:39;11.73;;;6.40;;
72335;SDS011;65062;48.446;8.834;2023-04-06T03:38:40;10.95;;;5.57;;
72335;SDS011;65062;48.446;8.834;2023-04-06T03:41:40;9.10;;;5.57;;
72335;SDS011;65062;48.446;8.834;2023-04-06T03:44:40;10.55;;;6.10;;
72335;SDS011;65062;48.446;8.834;2023-04-06T03:47:41;10.50;;;5.53;;
72335;SDS011;65062;48.446;8.834;2023-04-06T03:50:41;12.05;;;6.07;;
72335;SDS011;65062;48.446;8.834;2023-04-06T03:53:42;11.18;;;5.43;;
72335;SDS011;65062;48.446;8.834;2023-04-06T03:56:42;9.73;;;5.07;;
72335;SDS011;65062;48.446;8.834;2023-04-06T03:59:42;10.45;;;6.13;;
72335;SDS011;65062;48.446;8.834;2023-04-06T04:02:43;9.77;;;5.68;;
72335;SDS011;65062;48.446;8.834;2023-04-06T04:05:43;9.32;;;5.47;;
72335;SDS011;65062;48.446;8.834;2023-04-06T04:08:43;9.07;;;5.05;;
72335;SDS011;65062;48.446;8.834;2023-04-06T04:11:44;10.70;;;5.22;;
72335;SDS011;65062;48.446;8.834;2023-04-06T04:14:44;7.57;;;5.03;;
72335;SDS011;65062;48.446;8.834;2023-04-06T04:17:45;9.13;;;5.43;;
72335;SDS011;65062;48.446;8.834;2023-04-06T04:20:46;8.63;;;5.97;;
72335;SDS011;65062;48.446;8.834;2023-04-06T04:23:47;9.05;;;5.95;;
72335;SDS011;65062;48.446;8.834;2023-04-06T04:26:47;12.57;;;6.03;;
72335;SDS011;65062;48.446;8.834;2023-04-06T04:29:48;10.32;;;5.70;;
72335;SDS011;65062;48.446;8.834;2023-04-06T04:32:48;12.65;;;6.05;;
72335;SDS011;65062;48.446;8.834;2023-04-06T04:35:48;9.43;;;5.63;;
72335;SDS011;65062;48.446;8.834;2023-04-06T04:38:49;9.57;;;4.65;;
72335;SDS011;65062;48.446;8.834;2023-04-06T04:41:49;7.25;;;5.15;;
72335;SDS011;65062;48.446;8.834;2023-04-06T04:44:50;9.05;;;4.95;;
72335;SDS011;65062;48.446;8.834;2023-04-06T04:47:50;8.85;;;6.15;;
72335;SDS011;65062;48.446;8.834;2023-04-06T04:50:51;9.13;;;5.32;;
72335;SDS011;65062;48.446;8.834;2023-04-06T04:53:51;12.40;;;6.30;;
72335;SDS011;65062;48.446;8.834;2023-04-06T04:56:53;10.93;;;5.78;;
72335;SDS011;65062;48.446;8.834;2023-04-06T04:59:53;10.85;;;5.63;;
72335;SDS011;65062;48.446;8.834;2023-04-06T05:02:53;10.25;;;5.63;;
72335;SDS011;65062;48.446;8.834;2023-04-06T05:05:54;9.70;;;5.80;;
72335;SDS011;65062;48.446;8.834;2023-04-06T05:08:55;9.65;;;5.30;;
72335;SDS011;65062;48.446;8.834;2023-04-06T05:11:55;10.27;;;6.30;;
72335;SDS011;65062;48.446;8.834;2023-04-06T05:14:56;12.02;;;6.25;;
72335;SDS011;65062;48.446;8.834;2023-04-06T05:17:56;11.73;;;6.10;;
72335;SDS011;65062;48.446;8.834;2023-04-06T05:20:57;9.27;;;5.93;;
72335;SDS011;65062;48.446;8.834;2023-04-06T05:23:57;13.85;;;6.53;;
72335;SDS011;65062;48.446;8.834;2023-04-06T05:26:58;14.30;;;7.15;;
72335;SDS011;65062;48.446;8.834;2023-04-06T05:29:59;13.52;;;6.75;;
72335;SDS011;65062;48.446;8.834;2023-04-06T05:33:00;13.60;;;6.15;;
72335;SDS011;65062;48.446;8.834;2023-04-06T05:36:01;10.90;;;5.63;;
72335;SDS011;65062;48.446;8.834;2023-04-06T05:39:01;10.15;;;5.75;;
72335;SDS011;65062;48.446;8.834;2023-04-06T05:42:03;8.75;;;5.30;;
72335;SDS011;65062;48.446;8.834;2023-04-06T05:45:06;12.35;;;6.03;;
72335;SDS011;65062;48.446;8.834;2023-04-06T05:48:07;11.15;;;6.72;;
72335;SDS011;65062;48.446;8.834;2023-04-06T05:51:07;12.82;;;6.03;;
72335;SDS011;65062;48.446;8.834;2023-04-06T05:54:08;10.30;;;5.63;;
72335;SDS011;65062;48.446;8.834;2023-04-06T05:57:08;11.75;;;6.40;;
72335;SDS011;65062;48.446;8.834;2023-04-06T06:00:09;11.63;;;6.28;;
72335;SDS011;65062;48.446;8.834;2023-04-06T06:03:10;13.23;;;5.75;;
72335;SDS011;65062;48.446;8.834;2023-04-06T06:06:10;11.98;;;6.72;;
72335;SDS011;65062;48.446;8.834;2023-04-06T06:09:11;11.80;;;6.15;;
72335;SDS011;65062;48.446;8.834;2023-04-06T06:12:11;11.50;;;6.00;;
72335;SDS011;65062;48.446;8.834;2023-04-06T06:15:11;10.40;;;5.65;;
72335;SDS011;65062;48.446;8.834;2023-04-06T06:18:12;12.82;;;6.70;;
72335;SDS011;65062;48.446;8.834;2023-04-06T06:21:12;10.68;;;5.95;;
72335;SDS011;65062;48.446;8.834;2023-04-06T06:24:13;10.60;;;6.25;;
72335;SDS011;65062;48.446;8.834;2023-04-06T06:27:13;12.90;;;6.05;;
72335;SDS011;65062;48.446;8.834;2023-04-06T06:30:14;10.25;;;6.38;;
72335;SDS011;65062;48.446;8.834;2023-04-06T06:33:15;12.77;;;6.80;;
72335;SDS011;65062;48.446;8.834;2023-04-06T06:36:16;11.35;;;6.75;;
72335;SDS011;65062;48.446;8.834;2023-04-06T06:39:17;10.80;;;5.88;;
72335;SDS011;65062;48.446;8.834;2023-04-06T06:42:17;12.60;;;6.32;;
72335;SDS011;65062;48.446;8.834;2023-04-06T06:45:18;21.35;;;10.27;;
72335;SDS011;65062;48.446;8.834;2023-04-06T06:48:18;13.43;;;7.13;;
72335;SDS011;65062;48.446;8.834;2023-04-06T06:51:19;12.85;;;6.78;;
72335;SDS011;65062;48.446;8.834;2023-04-06T06:54:19;13.63;;;6.70;;
72335;SDS011;65062;48.446;8.834;2023-04-06T06:57:19;9.88;;;6.78;;
72335;SDS011;65062;48.446;8.834;2023-04-06T07:00:20;16.67;;;8.70;;
72335;SDS011;65062;48.446;8.834;2023-04-06T07:03:20;15.95;;;8.93;;
72335;SDS011;65062;48.446;8.834;2023-04-06T07:06:21;15.63;;;8.48;;
72335;SDS011;65062;48.446;8.834;2023-04-06T07:09:21;17.15;;;9.10;;
72335;SDS011;65062;48.446;8.834;2023-04-06T07:12:22;17.13;;;6.72;;
72335;SDS011;65062;48.446;8.834;2023-04-06T07:15:22;10.30;;;6.20;;
72335;SDS011;65062;48.446;8.834;2023-04-06T07:18:23;12.18;;;6.78;;
72335;SDS011;65062;48.446;8.834;2023-04-06T07:21:23;24.63;;;10.25;;
72335;SDS011;65062;48.446;8.834;2023-04-06T07:24:23;11.70;;;6.47;;
72335;SDS011;65062;48.446;8.834;2023-04-06T07:27:24;17.77;;;10.95;;
72335;SDS011;65062;48.446;8.834;2023-04-06T07:30:24;16.70;;;9.90;;
72335;SDS011;65062;48.446;8.834;2023-04-06T07:33:27;14.50;;;9.27;;
72335;SDS011;65062;48.446;8.834;2023-04-06T07:36:29;16.75;;;9.73;;
72335;SDS011;65062;48.446;8.834;2023-04-06T07:39:30;13.70;;;7.90;;
72335;SDS011;65062;48.446;8.834;2023-04-06T07:42:30;14.30;;;8.63;;
72335;SDS011;65062;48.446;8.834;2023-04-06T07:45:31;12.23;;;7.93;;
72335;SDS011;65062;48.446;8.834;2023-04-06T07:48:31;12.88;;;7.07;;
72335;SDS011;65062;48.446;8.834;2023-04-06T07:51:31;11.50;;;7.72;;
72335;SDS011;65062;48.446;8.834;2023-04-06T07:54:32;9.93;;;6.50;;
72335;SDS011;65062;48.446;8.834;2023-04-06T07:57:32;12.70;;;7.38;;
72335;SDS011;65062;48.446;8.834;2023-04-06T08:00:33;13.02;;;7.53;;
72335;SDS011;65062;48.446;8.834;2023-04-06T08:03:34;9.57;;;6.32;;
72335;SDS011;65062;48.446;8.834;2023-04-06T08:06:34;9.68;;;6.35;;
72335;SDS011;65062;48.446;8.834;2023-04-06T08:09:36;9.57;;;6.32;;
72335;SDS011;65062;48.446;8.834;2023-04-06T08:12:36;10.52;;;7.38;;
72335;SDS011;65062;48.446;8.834;2023-04-06T08:15:37;8.73;;;6.38;;
72335;SDS011;65062;48.446;8.834;2023-04-06T08:18:37;13.82;;;6.63;;
72335;SDS011;65062;48.446;8.834;2023-04-06T08:21:38;10.48;;;6.57;;
72335;SDS011;65062;48.446;8.834;2023-04-06T08:27:40;9.80;;;5.72;;
72335;SDS011;65062;48.446;8.834;2023-04-06T08:30:41;9.48;;;5.55;;
72335;SDS011;65062;48.446;8.834;2023-04-06T08:33:42;9.10;;;5.85;;
72335;SDS011;65062;48.446;8.834;2023-04-06T08:36:42;10.95;;;5.60;;
72335;SDS011;65062;48.446;8.834;2023-04-06T08:39:43;9.55;;;6.65;;
72335;SDS011;65062;48.446;8.834;2023-04-06T08:42:44;9.68;;;5.85;;
72335;SDS011;65062;48.446;8.834;2023-04-06T08:45:50;9.68;;;6.07;;
72335;SDS011;65062;48.446;8.834;2023-04-06T08:48:51;11.05;;;5.88;;
72335;SDS011;65062;48.446;8.834;2023-04-06T08:51:51;9.65;;;5.95;;
72335;SDS011;65062;48.446;8.834;2023-04-06T08:54:52;9.70;;;5.78;;
72335;SDS011;65062;48.446;8.834;2023-04-06T08:57:52;8.15;;;4.05;;
72335;SDS011;65062;48.446;8.834;2023-04-06T09:00:55;9.88;;;5.82;;
72335;SDS011;65062;48.446;8.834;2023-04-06T09:03:56;10.02;;;5.78;;
72335;SDS011;65062;48.446;8.834;2023-04-06T09:07:00;7.03;;;4.28;;
72335;SDS011;65062;48.446;8.834;2023-04-06T09:10:00;9.07;;;6.30;;
72335;SDS011;65062;48.446;8.834;2023-04-06T09:13:07;8.25;;;5.43;;
72335;SDS011;65062;48.446;8.834;2023-04-06T09:16:08;7.78;;;5.40;;
72335;SDS011;65062;48.446;8.834;2023-04-06T09:19:09;12.93;;;6.05;;
72335;SDS011;65062;48.446;8.834;2023-04-06T09:22:10;9.07;;;5.85;;
72335;SDS011;65062;48.446;8.834;2023-04-06T09:25:17;9.30;;;5.65;;
72335;SDS011;65062;48.446;8.834;2023-04-06T09:28:19;8.43;;;5.38;;
72335;SDS011;65062;48.446;8.834;2023-04-06T09:31:24;8.70;;;5.35;;
72335;SDS011;65062;48.446;8.834;2023-04-06T09:34:25;9.05;;;5.63;;
72335;SDS011;65062;48.446;8.834;2023-04-06T09:37:27;7.28;;;4.60;;
72335;SDS011;65062;48.446;8.834;2023-04-06T09:43:29;8.50;;;4.63;;
72335;SDS011;65062;48.446;8.834;2023-04-06T09:46:37;7.15;;;4.82;;
72335;SDS011;65062;48.446;8.834;2023-04-06T09:49:39;8.45;;;4.88;;
72335;SDS011;65062;48.446;8.834;2023-04-06T09:52:46;4.45;;;3.50;;
72335;SDS011;65062;48.446;8.834;2023-04-06T09:55:50;7.72;;;4.80;;
72335;SDS011;65062;48.446;8.834;2023-04-06T09:58:57;6.85;;;4.05;;
72335;SDS011;65062;48.446;8.834;2023-04-06T10:02:03;7.03;;;4.70;;
72335;SDS011;65062;48.446;8.834;2023-04-06T10:05:08;5.85;;;3.80;;
72335;SDS011;65062;48.446;8.834;2023-04-06T10:08:13;6.38;;;4.00;;
72335;SDS011;65062;48.446;8.834;2023-04-06T10:11:14;6.65;;;3.95;;
72335;SDS011;65062;48.446;8.834;2023-04-06T10:14:15;7.13;;;4.00;;
72335;SDS011;65062;48.446;8.834;2023-04-06T10:17:16;6.18;;;4.00;;
72335;SDS011;65062;48.446;8.834;2023-04-06T10:20:18;6.25;;;3.90;;
72335;SDS011;65062;48.446;8.834;2023-04-06T10:23:31;7.07;;;4.18;;
72335;SDS011;65062;48.446;8.834;2023-04-06T10:26:35;6.68;;;4.10;;
72335;SDS011;65062;48.446;8.834;2023-04-06T10:29:45;10.20;;;4.78;;
72335;SDS011;65062;48.446;8.834;2023-04-06T10:32:48;5.10;;;3.75;;
72335;SDS011;65062;48.446;8.834;2023-04-06T10:35:49;5.43;;;3.60;;
72335;SDS011;65062;48.446;8.834;2023-04-06T10:38:53;5.82;;;3.78;;
72335;SDS011;65062;48.446;8.834;2023-04-06T10:41:55;5.55;;;3.67;;
72335;SDS011;65062;48.446;8.834;2023-04-06T10:45:06;4.72;;;3.58;;
72335;SDS011;65062;48.446;8.834;2023-04-06T10:48:14;6.43;;;3.13;;
72335;SDS011;65062;48.446;8.834;2023-04-06T10:51:17;7.78;;;3.22;;
72335;SDS011;65062;48.446;8.834;2023-04-06T10:54:18;4.32;;;2.58;;
72335;SDS011;65062;48.446;8.834;2023-04-06T10:57:27;3.45;;;2.40;;
72335;SDS011;65062;48.446;8.834;2023-04-06T11:00:29;5.95;;;3.22;;
72335;SDS011;65062;48.446;8.834;2023-04-06T11:03:29;4.18;;;2.70;;
72335;SDS011;65062;48.446;8.834;2023-04-06T11:06:30;3.60;;;2.42;;
72335;SDS011;65062;48.446;8.834;2023-04-06T11:09:33;3.10;;;1.85;;
72335;SDS011;65062;48.446;8.834;2023-04-06T11:12:36;4.55;;;3.25;;
72335;SDS011;65062;48.446;8.834;2023-04-06T11:15:36;3.60;;;2.47;;
72335;SDS011;65062;48.446;8.834;2023-04-06T11:18:37;4.18;;;3.15;;
72335;SDS011;65062;48.446;8.834;2023-04-06T11:21:41;4.18;;;2.30;;
72335;SDS011;65062;48.446;8.834;2023-04-06T11:24:43;5.30;;;3.63;;
72335;SDS011;65062;48.446;8.834;2023-04-06T11:27:44;6.95;;;3.25;;
72335;SDS011;65062;48.446;8.834;2023-04-06T11:30:46;5.40;;;3.33;;
72335;SDS011;65062;48.446;8.834;2023-04-06T11:33:47;4.85;;;3.38;;
72335;SDS011;65062;48.446;8.834;2023-04-06T11:36:57;6.15;;;3.72;;
72335;SDS011;65062;48.446;8.834;2023-04-06T11:39:59;5.18;;;3.42;;
72335;SDS011;65062;48.446;8.834;2023-04-06T11:43:00;6.50;;;3.35;;
72335;SDS011;65062;48.446;8.834;2023-04-06T11:46:01;4.22;;;2.85;;
72335;SDS011;65062;48.446;8.834;2023-04-06T11:49:02;4.75;;;3.25;;
72335;SDS011;65062;48.446;8.834;2023-04-06T11:52:13;4.70;;;3.33;;
72335;SDS011;65062;48.446;8.834;2023-04-06T11:55:18;5.32;;;3.72;;
72335;SDS011;65062;48.446;8.834;2023-04-06T11:58:19;4.32;;;3.58;;
72335;SDS011;65062;48.446;8.834;2023-04-06T12:01:19;5.03;;;3.70;;
72335;SDS011;65062;48.446;8.834;2023-04-06T12:07:20;6.35;;;4.18;;
72335;SDS011;65062;48.446;8.834;2023-04-06T12:13:21;6.20;;;4.13;;
72335;SDS011;65062;48.446;8.834;2023-04-06T12:16:21;4.82;;;3.90;;
72335;SDS011;65062;48.446;8.834;2023-04-06T12:19:22;7.88;;;4.40;;
72335;SDS011;65062;48.446;8.834;2023-04-06T12:22:25;6.43;;;4.55;;
72335;SDS011;65062;48.446;8.834;2023-04-06T12:25:25;5.20;;;3.92;;
72335;SDS011;65062;48.446;8.834;2023-04-06T12:31:26;5.70;;;4.07;;
72335;SDS011;65062;48.446;8.834;2023-04-06T12:34:27;5.03;;;3.80;;
72335;SDS011;65062;48.446;8.834;2023-04-06T12:37:27;5.00;;;4.40;;
72335;SDS011;65062;48.446;8.834;2023-04-06T12:40:28;5.22;;;4.25;;
72335;SDS011;65062;48.446;8.834;2023-04-06T12:43:28;4.65;;;4.15;;
72335;SDS011;65062;48.446;8.834;2023-04-06T12:46:29;6.45;;;4.95;;
72335;SDS011;65062;48.446;8.834;2023-04-06T12:49:30;4.13;;;3.72;;
72335;SDS011;65062;48.446;8.834;2023-04-06T12:52:31;5.07;;;3.90;;
72335;SDS011;65062;48.446;8.834;2023-04-06T12:55:35;5.63;;;4.32;;
72335;SDS011;65062;48.446;8.834;2023-04-06T12:58:35;5.40;;;4.20;;
72335;SDS011;65062;48.446;8.834;2023-04-06T13:01:36;4.40;;;3.95;;
72335;SDS011;65062;48.446;8.834;2023-04-06T13:04:37;5.32;;;3.80;;
72335;SDS011;65062;48.446;8.834;2023-04-06T13:07:37;5.85;;;3.85;;
72335;SDS011;65062;48.446;8.834;2023-04-06T13:10:37;4.97;;;3.80;;
72335;SDS011;65062;48.446;8.834;2023-04-06T13:13:38;4.78;;;3.80;;
72335;SDS011;65062;48.446;8.834;2023-04-06T13:16:38;4.45;;;3.50;;
72335;SDS011;65062;48.446;8.834;2023-04-06T13:19:39;4.57;;;3.63;;
72335;SDS011;65062;48.446;8.834;2023-04-06T13:22:39;5.47;;;3.70;;
72335;SDS011;65062;48.446;8.834;2023-04-06T13:25:40;4.20;;;3.30;;
72335;SDS011;65062;48.446;8.834;2023-04-06T13:28:40;4.57;;;3.20;;
72335;SDS011;65062;48.446;8.834;2023-04-06T13:31:41;4.10;;;3.50;;
72335;SDS011;65062;48.446;8.834;2023-04-06T13:34:41;5.57;;;3.70;;
72335;SDS011;65062;48.446;8.834;2023-04-06T13:37:44;4.22;;;3.40;;
72335;SDS011;65062;48.446;8.834;2023-04-06T13:40:45;3.88;;;3.25;;
72335;SDS011;65062;48.446;8.834;2023-04-06T13:43:45;3.90;;;2.97;;
72335;SDS011;65062;48.446;8.834;2023-04-06T13:46:46;3.10;;;2.78;;
72335;SDS011;65062;48.446;8.834;2023-04-06T13:52:47;3.80;;;3.05;;
72335;SDS011;65062;48.446;8.834;2023-04-06T13:55:54;3.55;;;2.90;;
72335;SDS011;65062;48.446;8.834;2023-04-06T13:58:55;4.03;;;2.60;;
72335;SDS011;65062;48.446;8.834;2023-04-06T14:01:56;3.45;;;2.70;;
72335;SDS011;65062;48.446;8.834;2023-04-06T14:04:56;2.50;;;2.27;;
72335;SDS011;65062;48.446;8.834;2023-04-06T14:07:57;3.72;;;2.78;;
72335;SDS011;65062;48.446;8.834;2023-04-06T14:10:57;4.30;;;2.63;;
72335;SDS011;65062;48.446;8.834;2023-04-06T14:13:57;2.63;;;2.33;;
72335;SDS011;65062;48.446;8.834;2023-04-06T14:16:59;4.60;;;2.60;;
72335;SDS011;65062;48.446;8.834;2023-04-06T14:23:00;5.40;;;2.37;;
72335;SDS011;65062;48.446;8.834;2023-04-06T14:26:05;3.65;;;2.85;;
72335;SDS011;65062;48.446;8.834;2023-04-06T14:29:06;3.25;;;2.10;;
72335;SDS011;65062;48.446;8.834;2023-04-06T14:32:07;4.65;;;2.47;;
72335;SDS011;65062;48.446;8.834;2023-04-06T14:35:08;3.10;;;2.42;;
72335;SDS011;65062;48.446;8.834;2023-04-06T14:38:08;2.95;;;2.15;;
72335;SDS011;65062;48.446;8.834;2023-04-06T14:41:14;2.88;;;2.25;;
72335;SDS011;65062;48.446;8.834;2023-04-06T14:44:18;3.25;;;1.85;;
72335;SDS011;65062;48.446;8.834;2023-04-06T14:47:18;2.55;;;2.30;;
72335;SDS011;65062;48.446;8.834;2023-04-06T14:50:20;2.70;;;2.17;;
72335;SDS011;65062;48.446;8.834;2023-04-06T14:53:24;4.82;;;3.60;;
72335;SDS011;65062;48.446;8.834;2023-04-06T14:56:25;3.45;;;2.47;;
72335;SDS011;65062;48.446;8.834;2023-04-06T14:59:25;2.92;;;2.50;;
72335;SDS011;65062;48.446;8.834;2023-04-06T15:02:25;5.25;;;2.70;;
72335;SDS011;65062;48.446;8.834;2023-04-06T15:05:26;7.68;;;4.13;;
72335;SDS011;65062;48.446;8.834;2023-04-06T15:08:27;6.85;;;3.83;;
72335;SDS011;65062;48.446;8.834;2023-04-06T15:11:27;4.40;;;2.90;;
72335;SDS011;65062;48.446;8.834;2023-04-06T15:14:27;4.63;;;2.63;;
72335;SDS011;65062;48.446;8.834;2023-04-06T15:17:28;3.70;;;2.40;;
72335;SDS011;65062;48.446;8.834;2023-04-06T15:20:28;4.00;;;2.50;;
72335;SDS011;65062;48.446;8.834;2023-04-06T15:26:29;4.93;;;3.03;;
72335;SDS011;65062;48.446;8.834;2023-04-06T15:29:30;3.75;;;2.92;;
72335;SDS011;65062;48.446;8.834;2023-04-06T15:32:31;4.57;;;3.28;;
72335;SDS011;65062;48.446;8.834;2023-04-06T15:35:31;6.40;;;3.30;;
72335;SDS011;65062;48.446;8.834;2023-04-06T15:38:34;5.70;;;3.20;;
72335;SDS011;65062;48.446;8.834;2023-04-06T15:41:34;9.43;;;7.45;;
72335;SDS011;65062;48.446;8.834;2023-04-06T15:44:34;4.68;;;2.63;;
72335;SDS011;65062;48.446;8.834;2023-04-06T15:47:35;4.97;;;3.10;;
72335;SDS011;65062;48.446;8.834;2023-04-06T15:50:36;5.10;;;3.00;;
72335;SDS011;65062;48.446;8.834;2023-04-06T15:53:36;3.63;;;2.40;;
72335;SDS011;65062;48.446;8.834;2023-04-06T15:56:37;5.30;;;2.33;;
72335;SDS011;65062;48.446;8.834;2023-04-06T15:59:37;3.80;;;2.40;;
72335;SDS011;65062;48.446;8.834;2023-04-06T16:02:38;4.20;;;2.08;;
72335;SDS011;65062;48.446;8.834;2023-04-06T16:05:38;2.70;;;2.45;;
72335;SDS011;65062;48.446;8.834;2023-04-06T16:08:39;2.80;;;1.90;;
72335;SDS011;65062;48.446;8.834;2023-04-06T16:11:39;4.13;;;2.10;;
72335;SDS011;65062;48.446;8.834;2023-04-06T16:14:40;3.28;;;2.00;;
72335;SDS011;65062;48.446;8.834;2023-04-06T16:17:40;3.08;;;1.90;;
72335;SDS011;65062;48.446;8.834;2023-04-06T16:20:42;4.13;;;2.10;;
72335;SDS011;65062;48.446;8.834;2023-04-06T16:23:42;3.95;;;2.35;;
72335;SDS011;65062;48.446;8.834;2023-04-06T16:26:45;2.80;;;1.80;;
72335;SDS011;65062;48.446;8.834;2023-04-06T16:29:47;5.03;;;2.42;;
72335;SDS011;65062;48.446;8.834;2023-04-06T16:32:47;2.72;;;1.98;;
72335;SDS011;65062;48.446;8.834;2023-04-06T16:35:50;3.63;;;1.65;;
72335;SDS011;65062;48.446;8.834;2023-04-06T16:38:51;3.88;;;1.90;;
72335;SDS011;65062;48.446;8.834;2023-04-06T16:41:51;3.85;;;2.05;;
72335;SDS011;65062;48.446;8.834;2023-04-06T16:44:51;2.63;;;1.98;;
72335;SDS011;65062;48.446;8.834;2023-04-06T16:47:52;3.85;;;2.00;;
72335;SDS011;65062;48.446;8.834;2023-04-06T16:50:52;2.90;;;1.85;;
72335;SDS011;65062;48.446;8.834;2023-04-06T16:56:54;4.20;;;2.47;;
72335;SDS011;65062;48.446;8.834;2023-04-06T16:59:55;2.88;;;1.75;;
72335;SDS011;65062;48.446;8.834;2023-04-06T17:02:55;3.63;;;1.90;;
72335;SDS011;65062;48.446;8.834;2023-04-06T17:05:56;3.33;;;1.75;;
72335;SDS011;65062;48.446;8.834;2023-04-06T17:08:56;2.92;;;1.88;;
72335;SDS011;65062;48.446;8.834;2023-04-06T17:11:58;3.20;;;2.20;;
72335;SDS011;65062;48.446;8.834;2023-04-06T17:14:59;3.20;;;2.10;;
72335;SDS011;65062;48.446;8.834;2023-04-06T17:17:59;3.58;;;2.05;;
72335;SDS011;65062;48.446;8.834;2023-04-06T17:21:04;3.67;;;2.38;;
72335;SDS011;65062;48.446;8.834;2023-04-06T17:24:06;3.03;;;2.08;;
72335;SDS011;65062;48.446;8.834;2023-04-06T17:27:07;4.45;;;2.35;;
72335;SDS011;65062;48.446;8.834;2023-04-06T17:30:08;2.63;;;1.60;;
72335;SDS011;65062;48.446;8.834;2023-04-06T17:36:09;2.88;;;1.50;;
72335;SDS011;65062;48.446;8.834;2023-04-06T17:39:11;3.33;;;2.33;;
72335;SDS011;65062;48.446;8.834;2023-04-06T17:42:11;3.40;;;1.80;;
72335;SDS011;65062;48.446;8.834;2023-04-06T17:45:12;3.95;;;1.45;;
72335;SDS011;65062;48.446;8.834;2023-04-06T17:48:12;3.28;;;1.90;;
72335;SDS011;65062;48.446;8.834;2023-04-06T17:51:13;3.40;;;1.40;;
72335;SDS011;65062;48.446;8.834;2023-04-06T17:54:17;3.42;;;1.30;;
72335;SDS011;65062;48.446;8.834;2023-04-06T17:57:18;2.72;;;1.38;;
72335;SDS011;65062;48.446;8.834;2023-04-06T18:00:19;2.22;;;1.30;;
72335;SDS011;65062;48.446;8.834;2023-04-06T18:03:23;3.83;;;2.00;;
72335;SDS011;65062;48.446;8.834;2023-04-06T18:06:23;2.15;;;1.63;;
72335;SDS011;65062;48.446;8.834;2023-04-06T18:12:25;2.80;;;1.30;;
72335;SDS011;65062;48.446;8.834;2023-04-06T18:15:25;1.80;;;1.20;;
72335;SDS011;65062;48.446;8.834;2023-04-06T18:18:26;2.28;;;1.42;;
72335;SDS011;65062;48.446;8.834;2023-04-06T18:21:28;2.65;;;1.63;;
72335;SDS011;65062;48.446;8.834;2023-04-06T18:24:28;3.13;;;1.30;;
72335;SDS011;65062;48.446;8.834;2023-04-06T18:27:29;2.45;;;1.55;;
72335;SDS011;65062;48.446;8.834;2023-04-06T18:30:30;2.35;;;1.63;;
72335;SDS011;65062;48.446;8.834;2023-04-06T18:33:30;22.55;;;12.55;;
72335;SDS011;65062;48.446;8.834;2023-04-06T18:36:31;3.70;;;2.05;;
72335;SDS011;65062;48.446;8.834;2023-04-06T18:39:32;2.30;;;1.77;;